<?xml version="1.0" encoding="UTF-8" standalone="no" ?>
<gpx xmlns="http://www.topografix.com/GPX/1/1" xmlns:xsi="http://www.w3.org/2001/XMLSchema-instance" xsi:schemaLocation="http://www.topografix.com/GPX/1/1 http://www.topografix.com/GPX/1/1/gpx.xsd" version="1.1" creator="VisuGPX - https://www.visugpx.com">
  <metadata>
    <name>Bort les Orgues</name>
    <desc><![CDATA[Promenade au dessus de Bort les Orgues]]></desc>
  </metadata>
  <trk>
    <name><![CDATA[bort-les-orgues]]></name>
    <trkseg>
      <trkpt lat="45.39182" lon="2.47618">
        <ele>721.8</ele>
        <time>2014-08-28T12:59:51Z</time>
      </trkpt>
      <trkpt lat="45.39167" lon="2.47617">
        <ele>718.8</ele>
        <time>2014-08-28T13:01:54Z</time>
      </trkpt>
      <trkpt lat="45.39165" lon="2.47617">
        <ele>718.1</ele>
        <time>2014-08-28T13:01:56Z</time>
      </trkpt>
      <trkpt lat="45.39228" lon="2.47547">
        <ele>704.5</ele>
        <time>2014-08-28T13:01:58Z</time>
      </trkpt>
      <trkpt lat="45.39207" lon="2.47547">
        <ele>705</ele>
        <time>2014-08-28T13:02:16Z</time>
      </trkpt>
      <trkpt lat="45.39195" lon="2.47557">
        <ele>736</ele>
        <time>2014-08-28T13:03:26Z</time>
      </trkpt>
      <trkpt lat="45.3918" lon="2.47573">
        <ele>743</ele>
        <time>2014-08-28T13:03:46Z</time>
      </trkpt>
      <trkpt lat="45.3917" lon="2.47588">
        <ele>738</ele>
        <time>2014-08-28T13:04:03Z</time>
      </trkpt>
      <trkpt lat="45.3916" lon="2.47605">
        <ele>732</ele>
        <time>2014-08-28T13:04:21Z</time>
      </trkpt>
      <trkpt lat="45.39147" lon="2.47625">
        <ele>736</ele>
        <time>2014-08-28T13:04:39Z</time>
      </trkpt>
      <trkpt lat="45.39137" lon="2.4764">
        <ele>730</ele>
        <time>2014-08-28T13:04:51Z</time>
      </trkpt>
      <trkpt lat="45.39123" lon="2.47653">
        <ele>733</ele>
        <time>2014-08-28T13:05:09Z</time>
      </trkpt>
      <trkpt lat="45.39108" lon="2.47672">
        <ele>740</ele>
        <time>2014-08-28T13:05:27Z</time>
      </trkpt>
      <trkpt lat="45.39095" lon="2.47677">
        <ele>746</ele>
        <time>2014-08-28T13:05:45Z</time>
      </trkpt>
      <trkpt lat="45.3908" lon="2.47683">
        <ele>750</ele>
        <time>2014-08-28T13:06:03Z</time>
      </trkpt>
      <trkpt lat="45.3907" lon="2.47697">
        <ele>735</ele>
        <time>2014-08-28T13:09:01Z</time>
      </trkpt>
      <trkpt lat="45.39055" lon="2.47708">
        <ele>738</ele>
        <time>2014-08-28T13:09:19Z</time>
      </trkpt>
      <trkpt lat="45.39042" lon="2.47718">
        <ele>740</ele>
        <time>2014-08-28T13:09:37Z</time>
      </trkpt>
      <trkpt lat="45.39027" lon="2.47723">
        <ele>742</ele>
        <time>2014-08-28T13:09:49Z</time>
      </trkpt>
      <trkpt lat="45.3901" lon="2.47722">
        <ele>746</ele>
        <time>2014-08-28T13:10:07Z</time>
      </trkpt>
      <trkpt lat="45.38992" lon="2.4772">
        <ele>748</ele>
        <time>2014-08-28T13:10:25Z</time>
      </trkpt>
      <trkpt lat="45.38973" lon="2.47722">
        <ele>749</ele>
        <time>2014-08-28T13:10:43Z</time>
      </trkpt>
      <trkpt lat="45.38955" lon="2.4772">
        <ele>750</ele>
        <time>2014-08-28T13:11:01Z</time>
      </trkpt>
      <trkpt lat="45.38938" lon="2.47723">
        <ele>750</ele>
        <time>2014-08-28T13:11:18Z</time>
      </trkpt>
      <trkpt lat="45.38918" lon="2.47727">
        <ele>751</ele>
        <time>2014-08-28T13:11:36Z</time>
      </trkpt>
      <trkpt lat="45.38902" lon="2.4774">
        <ele>751</ele>
        <time>2014-08-28T13:11:54Z</time>
      </trkpt>
      <trkpt lat="45.38893" lon="2.47723">
        <ele>748</ele>
        <time>2014-08-28T13:12:22Z</time>
      </trkpt>
      <trkpt lat="45.38897" lon="2.47743">
        <ele>749</ele>
        <time>2014-08-28T13:31:45Z</time>
      </trkpt>
      <trkpt lat="45.38895" lon="2.47723">
        <ele>758</ele>
        <time>2014-08-28T13:34:28Z</time>
      </trkpt>
      <trkpt lat="45.38898" lon="2.47743">
        <ele>750</ele>
        <time>2014-08-28T13:55:57Z</time>
      </trkpt>
      <trkpt lat="45.38883" lon="2.47752">
        <ele>750</ele>
        <time>2014-08-28T13:56:15Z</time>
      </trkpt>
      <trkpt lat="45.38867" lon="2.47755">
        <ele>750</ele>
        <time>2014-08-28T13:56:33Z</time>
      </trkpt>
      <trkpt lat="45.38855" lon="2.47775">
        <ele>748</ele>
        <time>2014-08-28T13:56:51Z</time>
      </trkpt>
      <trkpt lat="45.38842" lon="2.47768">
        <ele>747</ele>
        <time>2014-08-28T13:57:29Z</time>
      </trkpt>
      <trkpt lat="45.38847" lon="2.47787">
        <ele>746</ele>
        <time>2014-08-28T13:59:38Z</time>
      </trkpt>
      <trkpt lat="45.38847" lon="2.47807">
        <ele>740</ele>
        <time>2014-08-28T14:00:17Z</time>
      </trkpt>
      <trkpt lat="45.38857" lon="2.47823">
        <ele>744</ele>
        <time>2014-08-28T14:01:19Z</time>
      </trkpt>
      <trkpt lat="45.3887" lon="2.47837">
        <ele>745</ele>
        <time>2014-08-28T14:01:37Z</time>
      </trkpt>
      <trkpt lat="45.3888" lon="2.4785">
        <ele>742</ele>
        <time>2014-08-28T14:02:22Z</time>
      </trkpt>
      <trkpt lat="45.38892" lon="2.4786">
        <ele>743</ele>
        <time>2014-08-28T14:02:54Z</time>
      </trkpt>
      <trkpt lat="45.38903" lon="2.4787">
        <ele>749</ele>
        <time>2014-08-28T14:03:38Z</time>
      </trkpt>
      <trkpt lat="45.38918" lon="2.47883">
        <ele>749</ele>
        <time>2014-08-28T14:04:02Z</time>
      </trkpt>
      <trkpt lat="45.38933" lon="2.47893">
        <ele>751</ele>
        <time>2014-08-28T14:04:20Z</time>
      </trkpt>
      <trkpt lat="45.38947" lon="2.47897">
        <ele>751</ele>
        <time>2014-08-28T14:04:53Z</time>
      </trkpt>
      <trkpt lat="45.38962" lon="2.47897">
        <ele>752</ele>
        <time>2014-08-28T14:05:27Z</time>
      </trkpt>
      <trkpt lat="45.3898" lon="2.47902">
        <ele>755</ele>
        <time>2014-08-28T14:05:47Z</time>
      </trkpt>
      <trkpt lat="45.38993" lon="2.47905">
        <ele>755</ele>
        <time>2014-08-28T14:07:30Z</time>
      </trkpt>
      <trkpt lat="45.3901" lon="2.47908">
        <ele>757</ele>
        <time>2014-08-28T14:07:48Z</time>
      </trkpt>
      <trkpt lat="45.39023" lon="2.47913">
        <ele>758</ele>
        <time>2014-08-28T14:08:00Z</time>
      </trkpt>
      <trkpt lat="45.39042" lon="2.47922">
        <ele>761</ele>
        <time>2014-08-28T14:08:18Z</time>
      </trkpt>
      <trkpt lat="45.39055" lon="2.47925">
        <ele>763</ele>
        <time>2014-08-28T14:08:30Z</time>
      </trkpt>
      <trkpt lat="45.39068" lon="2.47932">
        <ele>761</ele>
        <time>2014-08-28T14:08:42Z</time>
      </trkpt>
      <trkpt lat="45.39082" lon="2.47937">
        <ele>761</ele>
        <time>2014-08-28T14:08:54Z</time>
      </trkpt>
      <trkpt lat="45.39105" lon="2.47942">
        <ele>764</ele>
        <time>2014-08-28T14:09:14Z</time>
      </trkpt>
      <trkpt lat="45.39123" lon="2.47948">
        <ele>766</ele>
        <time>2014-08-28T14:09:33Z</time>
      </trkpt>
      <trkpt lat="45.3914" lon="2.47953">
        <ele>764</ele>
        <time>2014-08-28T14:09:51Z</time>
      </trkpt>
      <trkpt lat="45.39152" lon="2.47963">
        <ele>764</ele>
        <time>2014-08-28T14:10:33Z</time>
      </trkpt>
      <trkpt lat="45.39167" lon="2.4797">
        <ele>765</ele>
        <time>2014-08-28T14:10:45Z</time>
      </trkpt>
      <trkpt lat="45.3918" lon="2.47977">
        <ele>766</ele>
        <time>2014-08-28T14:11:05Z</time>
      </trkpt>
      <trkpt lat="45.39193" lon="2.47985">
        <ele>770</ele>
        <time>2014-08-28T14:11:25Z</time>
      </trkpt>
      <trkpt lat="45.39205" lon="2.48002">
        <ele>774</ele>
        <time>2014-08-28T14:11:43Z</time>
      </trkpt>
      <trkpt lat="45.39218" lon="2.48008">
        <ele>772</ele>
        <time>2014-08-28T14:11:56Z</time>
      </trkpt>
      <trkpt lat="45.39238" lon="2.48015">
        <ele>774</ele>
        <time>2014-08-28T14:12:18Z</time>
      </trkpt>
      <trkpt lat="45.39257" lon="2.48023">
        <ele>774</ele>
        <time>2014-08-28T14:12:36Z</time>
      </trkpt>
      <trkpt lat="45.3927" lon="2.4803">
        <ele>774</ele>
        <time>2014-08-28T14:12:48Z</time>
      </trkpt>
      <trkpt lat="45.39283" lon="2.48045">
        <ele>778</ele>
        <time>2014-08-28T14:13:06Z</time>
      </trkpt>
      <trkpt lat="45.39293" lon="2.4807">
        <ele>779</ele>
        <time>2014-08-28T14:13:24Z</time>
      </trkpt>
      <trkpt lat="45.39312" lon="2.48087">
        <ele>782</ele>
        <time>2014-08-28T14:13:42Z</time>
      </trkpt>
      <trkpt lat="45.39325" lon="2.4809">
        <ele>777</ele>
        <time>2014-08-28T14:14:00Z</time>
      </trkpt>
      <trkpt lat="45.39338" lon="2.48093">
        <ele>778</ele>
        <time>2014-08-28T14:14:13Z</time>
      </trkpt>
      <trkpt lat="45.39352" lon="2.48102">
        <ele>778</ele>
        <time>2014-08-28T14:14:39Z</time>
      </trkpt>
      <trkpt lat="45.39368" lon="2.48113">
        <ele>781</ele>
        <time>2014-08-28T14:14:59Z</time>
      </trkpt>
      <trkpt lat="45.39382" lon="2.48128">
        <ele>786</ele>
        <time>2014-08-28T14:15:17Z</time>
      </trkpt>
      <trkpt lat="45.39395" lon="2.48137">
        <ele>783</ele>
        <time>2014-08-28T14:15:29Z</time>
      </trkpt>
      <trkpt lat="45.39413" lon="2.48145">
        <ele>782</ele>
        <time>2014-08-28T14:15:47Z</time>
      </trkpt>
      <trkpt lat="45.3943" lon="2.48157">
        <ele>784</ele>
        <time>2014-08-28T14:16:05Z</time>
      </trkpt>
      <trkpt lat="45.39442" lon="2.48175">
        <ele>793</ele>
        <time>2014-08-28T14:16:23Z</time>
      </trkpt>
      <trkpt lat="45.39453" lon="2.48187">
        <ele>794</ele>
        <time>2014-08-28T14:16:36Z</time>
      </trkpt>
      <trkpt lat="45.39465" lon="2.48197">
        <ele>796</ele>
        <time>2014-08-28T14:16:48Z</time>
      </trkpt>
      <trkpt lat="45.39477" lon="2.48223">
        <ele>793</ele>
        <time>2014-08-28T14:17:06Z</time>
      </trkpt>
      <trkpt lat="45.3949" lon="2.48248">
        <ele>792</ele>
        <time>2014-08-28T14:17:26Z</time>
      </trkpt>
      <trkpt lat="45.395" lon="2.4827">
        <ele>793</ele>
        <time>2014-08-28T14:17:44Z</time>
      </trkpt>
      <trkpt lat="45.39513" lon="2.48288">
        <ele>786</ele>
        <time>2014-08-28T14:18:02Z</time>
      </trkpt>
      <trkpt lat="45.39505" lon="2.48305">
        <ele>778</ele>
        <time>2014-08-28T14:19:03Z</time>
      </trkpt>
      <trkpt lat="45.39518" lon="2.48298">
        <ele>781</ele>
        <time>2014-08-28T14:21:03Z</time>
      </trkpt>
      <trkpt lat="45.39532" lon="2.48303">
        <ele>782</ele>
        <time>2014-08-28T14:21:20Z</time>
      </trkpt>
      <trkpt lat="45.39552" lon="2.48318">
        <ele>783</ele>
        <time>2014-08-28T14:21:44Z</time>
      </trkpt>
      <trkpt lat="45.39565" lon="2.48323">
        <ele>783</ele>
        <time>2014-08-28T14:21:56Z</time>
      </trkpt>
      <trkpt lat="45.39582" lon="2.48328">
        <ele>783</ele>
        <time>2014-08-28T14:22:14Z</time>
      </trkpt>
      <trkpt lat="45.39585" lon="2.48348">
        <ele>779</ele>
        <time>2014-08-28T14:22:48Z</time>
      </trkpt>
      <trkpt lat="45.3958" lon="2.4837">
        <ele>772</ele>
        <time>2014-08-28T14:23:10Z</time>
      </trkpt>
      <trkpt lat="45.39585" lon="2.4835">
        <ele>778</ele>
        <time>2014-08-28T14:28:39Z</time>
      </trkpt>
      <trkpt lat="45.39585" lon="2.4833">
        <ele>783</ele>
        <time>2014-08-28T14:29:03Z</time>
      </trkpt>
      <trkpt lat="45.39573" lon="2.4832">
        <ele>788</ele>
        <time>2014-08-28T14:34:58Z</time>
      </trkpt>
      <trkpt lat="45.39587" lon="2.48315">
        <ele>778</ele>
        <time>2014-08-28T14:41:27Z</time>
      </trkpt>
      <trkpt lat="45.39585" lon="2.48335">
        <ele>781</ele>
        <time>2014-08-28T14:53:00Z</time>
      </trkpt>
      <trkpt lat="45.39597" lon="2.48325">
        <ele>771</ele>
        <time>2014-08-28T14:54:51Z</time>
      </trkpt>
      <trkpt lat="45.3961" lon="2.4832">
        <ele>780</ele>
        <time>2014-08-28T14:55:39Z</time>
      </trkpt>
      <trkpt lat="45.39612" lon="2.48297">
        <ele>785</ele>
        <time>2014-08-28T14:55:57Z</time>
      </trkpt>
      <trkpt lat="45.39618" lon="2.48272">
        <ele>783</ele>
        <time>2014-08-28T14:56:15Z</time>
      </trkpt>
      <trkpt lat="45.39627" lon="2.48248">
        <ele>785</ele>
        <time>2014-08-28T14:56:33Z</time>
      </trkpt>
      <trkpt lat="45.39637" lon="2.48235">
        <ele>780</ele>
        <time>2014-08-28T14:56:43Z</time>
      </trkpt>
      <trkpt lat="45.39645" lon="2.48212">
        <ele>784</ele>
        <time>2014-08-28T14:57:02Z</time>
      </trkpt>
      <trkpt lat="45.3965" lon="2.48188">
        <ele>787</ele>
        <time>2014-08-28T14:57:20Z</time>
      </trkpt>
      <trkpt lat="45.39655" lon="2.48163">
        <ele>796</ele>
        <time>2014-08-28T14:57:38Z</time>
      </trkpt>
      <trkpt lat="45.3966" lon="2.48138">
        <ele>793</ele>
        <time>2014-08-28T14:57:56Z</time>
      </trkpt>
      <trkpt lat="45.39665" lon="2.48117">
        <ele>783</ele>
        <time>2014-08-28T14:58:08Z</time>
      </trkpt>
      <trkpt lat="45.3968" lon="2.48098">
        <ele>768</ele>
        <time>2014-08-28T14:58:26Z</time>
      </trkpt>
      <trkpt lat="45.39677" lon="2.48077">
        <ele>755</ele>
        <time>2014-08-28T14:58:38Z</time>
      </trkpt>
      <trkpt lat="45.39673" lon="2.48055">
        <ele>763</ele>
        <time>2014-08-28T14:58:56Z</time>
      </trkpt>
      <trkpt lat="45.39692" lon="2.4805">
        <ele>774</ele>
        <time>2014-08-28T14:59:18Z</time>
      </trkpt>
      <trkpt lat="45.39677" lon="2.48053">
        <ele>788</ele>
        <time>2014-08-28T14:59:27Z</time>
      </trkpt>
      <trkpt lat="45.39667" lon="2.48068">
        <ele>810</ele>
        <time>2014-08-28T14:59:39Z</time>
      </trkpt>
      <trkpt lat="45.39678" lon="2.4808">
        <ele>808</ele>
        <time>2014-08-28T14:59:47Z</time>
      </trkpt>
      <trkpt lat="45.39685" lon="2.48098">
        <ele>808</ele>
        <time>2014-08-28T14:59:59Z</time>
      </trkpt>
      <trkpt lat="45.39708" lon="2.48113">
        <ele>799</ele>
        <time>2014-08-28T15:00:17Z</time>
      </trkpt>
      <trkpt lat="45.39725" lon="2.48118">
        <ele>797</ele>
        <time>2014-08-28T15:00:25Z</time>
      </trkpt>
      <trkpt lat="45.3971" lon="2.48128">
        <ele>801</ele>
        <time>2014-08-28T15:00:43Z</time>
      </trkpt>
      <trkpt lat="45.39722" lon="2.48138">
        <ele>793</ele>
        <time>2014-08-28T15:00:55Z</time>
      </trkpt>
      <trkpt lat="45.39757" lon="2.48157">
        <ele>784</ele>
        <time>2014-08-28T15:01:14Z</time>
      </trkpt>
      <trkpt lat="45.39775" lon="2.48167">
        <ele>784</ele>
        <time>2014-08-28T15:01:22Z</time>
      </trkpt>
      <trkpt lat="45.39762" lon="2.48153">
        <ele>773</ele>
        <time>2014-08-28T15:01:30Z</time>
      </trkpt>
      <trkpt lat="45.39775" lon="2.48157">
        <ele>788</ele>
        <time>2014-08-28T15:01:52Z</time>
      </trkpt>
      <trkpt lat="45.3979" lon="2.4816">
        <ele>788</ele>
        <time>2014-08-28T15:02:04Z</time>
      </trkpt>
      <trkpt lat="45.39812" lon="2.48162">
        <ele>788</ele>
        <time>2014-08-28T15:02:22Z</time>
      </trkpt>
      <trkpt lat="45.39828" lon="2.4816">
        <ele>787</ele>
        <time>2014-08-28T15:02:34Z</time>
      </trkpt>
      <trkpt lat="45.39847" lon="2.48155">
        <ele>788</ele>
        <time>2014-08-28T15:02:52Z</time>
      </trkpt>
      <trkpt lat="45.39862" lon="2.48153">
        <ele>786</ele>
        <time>2014-08-28T15:03:02Z</time>
      </trkpt>
      <trkpt lat="45.39883" lon="2.4815">
        <ele>785</ele>
        <time>2014-08-28T15:03:20Z</time>
      </trkpt>
      <trkpt lat="45.39897" lon="2.4814">
        <ele>787</ele>
        <time>2014-08-28T15:03:37Z</time>
      </trkpt>
      <trkpt lat="45.39917" lon="2.48128">
        <ele>789</ele>
        <time>2014-08-28T15:03:55Z</time>
      </trkpt>
      <trkpt lat="45.39932" lon="2.48128">
        <ele>788</ele>
        <time>2014-08-28T15:04:23Z</time>
      </trkpt>
      <trkpt lat="45.39945" lon="2.48118">
        <ele>788</ele>
        <time>2014-08-28T15:04:57Z</time>
      </trkpt>
      <trkpt lat="45.3996" lon="2.48122">
        <ele>787</ele>
        <time>2014-08-28T15:05:15Z</time>
      </trkpt>
      <trkpt lat="45.39975" lon="2.48127">
        <ele>786</ele>
        <time>2014-08-28T15:05:27Z</time>
      </trkpt>
      <trkpt lat="45.39988" lon="2.48137">
        <ele>785</ele>
        <time>2014-08-28T15:05:39Z</time>
      </trkpt>
      <trkpt lat="45.4" lon="2.48152">
        <ele>793</ele>
        <time>2014-08-28T15:05:57Z</time>
      </trkpt>
      <trkpt lat="45.40015" lon="2.48167">
        <ele>778</ele>
        <time>2014-08-28T15:06:10Z</time>
      </trkpt>
      <trkpt lat="45.4003" lon="2.48175">
        <ele>772</ele>
        <time>2014-08-28T15:06:16Z</time>
      </trkpt>
      <trkpt lat="45.40045" lon="2.48185">
        <ele>770</ele>
        <time>2014-08-28T15:06:22Z</time>
      </trkpt>
      <trkpt lat="45.40047" lon="2.48205">
        <ele>760</ele>
        <time>2014-08-28T15:06:42Z</time>
      </trkpt>
      <trkpt lat="45.40062" lon="2.48213">
        <ele>764</ele>
        <time>2014-08-28T15:06:52Z</time>
      </trkpt>
      <trkpt lat="45.4007" lon="2.48237">
        <ele>773</ele>
        <time>2014-08-28T15:07:12Z</time>
      </trkpt>
      <trkpt lat="45.4009" lon="2.48235">
        <ele>768</ele>
        <time>2014-08-28T15:07:30Z</time>
      </trkpt>
      <trkpt lat="45.40105" lon="2.4823">
        <ele>763</ele>
        <time>2014-08-28T15:07:42Z</time>
      </trkpt>
      <trkpt lat="45.40118" lon="2.48227">
        <ele>759</ele>
        <time>2014-08-28T15:07:52Z</time>
      </trkpt>
      <trkpt lat="45.4014" lon="2.48218">
        <ele>756</ele>
        <time>2014-08-28T15:08:10Z</time>
      </trkpt>
      <trkpt lat="45.40153" lon="2.48215">
        <ele>754</ele>
        <time>2014-08-28T15:08:21Z</time>
      </trkpt>
      <trkpt lat="45.40175" lon="2.48205">
        <ele>751</ele>
        <time>2014-08-28T15:08:39Z</time>
      </trkpt>
      <trkpt lat="45.40188" lon="2.482">
        <ele>750</ele>
        <time>2014-08-28T15:08:57Z</time>
      </trkpt>
      <trkpt lat="45.40197" lon="2.4822">
        <ele>746</ele>
        <time>2014-08-28T15:09:15Z</time>
      </trkpt>
      <trkpt lat="45.40202" lon="2.48238">
        <ele>740</ele>
        <time>2014-08-28T15:09:39Z</time>
      </trkpt>
      <trkpt lat="45.402" lon="2.48258">
        <ele>740</ele>
        <time>2014-08-28T15:09:45Z</time>
      </trkpt>
      <trkpt lat="45.40193" lon="2.48278">
        <ele>743</ele>
        <time>2014-08-28T15:09:51Z</time>
      </trkpt>
      <trkpt lat="45.4018" lon="2.48287">
        <ele>738</ele>
        <time>2014-08-28T15:10:21Z</time>
      </trkpt>
      <trkpt lat="45.40173" lon="2.48313">
        <ele>746</ele>
        <time>2014-08-28T15:10:39Z</time>
      </trkpt>
      <trkpt lat="45.40172" lon="2.48337">
        <ele>746</ele>
        <time>2014-08-28T15:10:51Z</time>
      </trkpt>
      <trkpt lat="45.40168" lon="2.4836">
        <ele>739</ele>
        <time>2014-08-28T15:11:08Z</time>
      </trkpt>
      <trkpt lat="45.40163" lon="2.4838">
        <ele>734</ele>
        <time>2014-08-28T15:11:20Z</time>
      </trkpt>
      <trkpt lat="45.4017" lon="2.48408">
        <ele>727</ele>
        <time>2014-08-28T15:11:38Z</time>
      </trkpt>
      <trkpt lat="45.4017" lon="2.4843">
        <ele>723</ele>
        <time>2014-08-28T15:11:50Z</time>
      </trkpt>
      <trkpt lat="45.40172" lon="2.4845">
        <ele>720</ele>
        <time>2014-08-28T15:12:02Z</time>
      </trkpt>
      <trkpt lat="45.4017" lon="2.48475">
        <ele>727</ele>
        <time>2014-08-28T15:12:20Z</time>
      </trkpt>
      <trkpt lat="45.40162" lon="2.48492">
        <ele>731</ele>
        <time>2014-08-28T15:12:30Z</time>
      </trkpt>
      <trkpt lat="45.40157" lon="2.48515">
        <ele>729</ele>
        <time>2014-08-28T15:12:48Z</time>
      </trkpt>
      <trkpt lat="45.4015" lon="2.48533">
        <ele>722</ele>
        <time>2014-08-28T15:13:08Z</time>
      </trkpt>
      <trkpt lat="45.40138" lon="2.48553">
        <ele>721</ele>
        <time>2014-08-28T15:13:26Z</time>
      </trkpt>
      <trkpt lat="45.40127" lon="2.48563">
        <ele>717</ele>
        <time>2014-08-28T15:13:43Z</time>
      </trkpt>
      <trkpt lat="45.40113" lon="2.48573">
        <ele>715</ele>
        <time>2014-08-28T15:13:55Z</time>
      </trkpt>
      <trkpt lat="45.40102" lon="2.4859">
        <ele>712</ele>
        <time>2014-08-28T15:14:15Z</time>
      </trkpt>
      <trkpt lat="45.40088" lon="2.48605">
        <ele>720</ele>
        <time>2014-08-28T15:14:27Z</time>
      </trkpt>
      <trkpt lat="45.40078" lon="2.4862">
        <ele>717</ele>
        <time>2014-08-28T15:14:39Z</time>
      </trkpt>
      <trkpt lat="45.40073" lon="2.48638">
        <ele>714</ele>
        <time>2014-08-28T15:14:49Z</time>
      </trkpt>
      <trkpt lat="45.40067" lon="2.48663">
        <ele>702</ele>
        <time>2014-08-28T15:15:07Z</time>
      </trkpt>
      <trkpt lat="45.40063" lon="2.48692">
        <ele>696</ele>
        <time>2014-08-28T15:15:25Z</time>
      </trkpt>
      <trkpt lat="45.40058" lon="2.48715">
        <ele>693</ele>
        <time>2014-08-28T15:15:43Z</time>
      </trkpt>
      <trkpt lat="45.40048" lon="2.48732">
        <ele>697</ele>
        <time>2014-08-28T15:15:54Z</time>
      </trkpt>
      <trkpt lat="45.40037" lon="2.48743">
        <ele>699</ele>
        <time>2014-08-28T15:16:02Z</time>
      </trkpt>
      <trkpt lat="45.40023" lon="2.4874">
        <ele>698</ele>
        <time>2014-08-28T15:16:12Z</time>
      </trkpt>
      <trkpt lat="45.40007" lon="2.4873">
        <ele>695</ele>
        <time>2014-08-28T15:16:30Z</time>
      </trkpt>
      <trkpt lat="45.39992" lon="2.48732">
        <ele>689</ele>
        <time>2014-08-28T15:16:40Z</time>
      </trkpt>
      <trkpt lat="45.39978" lon="2.48723">
        <ele>682</ele>
        <time>2014-08-28T15:16:52Z</time>
      </trkpt>
      <trkpt lat="45.39962" lon="2.48718">
        <ele>669</ele>
        <time>2014-08-28T15:17:10Z</time>
      </trkpt>
      <trkpt lat="45.39945" lon="2.48722">
        <ele>677</ele>
        <time>2014-08-28T15:17:22Z</time>
      </trkpt>
      <trkpt lat="45.39923" lon="2.48725">
        <ele>679</ele>
        <time>2014-08-28T15:17:40Z</time>
      </trkpt>
      <trkpt lat="45.39902" lon="2.48727">
        <ele>676</ele>
        <time>2014-08-28T15:17:58Z</time>
      </trkpt>
      <trkpt lat="45.39883" lon="2.48738">
        <ele>674</ele>
        <time>2014-08-28T15:18:16Z</time>
      </trkpt>
      <trkpt lat="45.3987" lon="2.48733">
        <ele>671</ele>
        <time>2014-08-28T15:18:27Z</time>
      </trkpt>
      <trkpt lat="45.39857" lon="2.48727">
        <ele>670</ele>
        <time>2014-08-28T15:18:47Z</time>
      </trkpt>
      <trkpt lat="45.3984" lon="2.48717">
        <ele>667</ele>
        <time>2014-08-28T15:19:05Z</time>
      </trkpt>
      <trkpt lat="45.39822" lon="2.48698">
        <ele>666</ele>
        <time>2014-08-28T15:19:23Z</time>
      </trkpt>
      <trkpt lat="45.39808" lon="2.48685">
        <ele>665</ele>
        <time>2014-08-28T15:19:41Z</time>
      </trkpt>
      <trkpt lat="45.39792" lon="2.4867">
        <ele>667</ele>
        <time>2014-08-28T15:19:59Z</time>
      </trkpt>
      <trkpt lat="45.39777" lon="2.48665">
        <ele>674</ele>
        <time>2014-08-28T15:20:21Z</time>
      </trkpt>
      <trkpt lat="45.39767" lon="2.4865">
        <ele>673</ele>
        <time>2014-08-28T15:20:33Z</time>
      </trkpt>
      <trkpt lat="45.39757" lon="2.48637">
        <ele>670</ele>
        <time>2014-08-28T15:20:45Z</time>
      </trkpt>
      <trkpt lat="45.39742" lon="2.48625">
        <ele>668</ele>
        <time>2014-08-28T15:21:02Z</time>
      </trkpt>
      <trkpt lat="45.39722" lon="2.48625">
        <ele>677</ele>
        <time>2014-08-28T15:21:20Z</time>
      </trkpt>
      <trkpt lat="45.39707" lon="2.48627">
        <ele>677</ele>
        <time>2014-08-28T15:21:32Z</time>
      </trkpt>
      <trkpt lat="45.39687" lon="2.48625">
        <ele>681</ele>
        <time>2014-08-28T15:21:50Z</time>
      </trkpt>
      <trkpt lat="45.39673" lon="2.48618">
        <ele>679</ele>
        <time>2014-08-28T15:22:02Z</time>
      </trkpt>
      <trkpt lat="45.39658" lon="2.48612">
        <ele>675</ele>
        <time>2014-08-28T15:22:14Z</time>
      </trkpt>
      <trkpt lat="45.39638" lon="2.48615">
        <ele>678</ele>
        <time>2014-08-28T15:22:32Z</time>
      </trkpt>
      <trkpt lat="45.39625" lon="2.48618">
        <ele>680</ele>
        <time>2014-08-28T15:22:42Z</time>
      </trkpt>
      <trkpt lat="45.3961" lon="2.4861">
        <ele>676</ele>
        <time>2014-08-28T15:22:54Z</time>
      </trkpt>
      <trkpt lat="45.3959" lon="2.48598">
        <ele>670</ele>
        <time>2014-08-28T15:23:12Z</time>
      </trkpt>
      <trkpt lat="45.39577" lon="2.48593">
        <ele>668</ele>
        <time>2014-08-28T15:23:24Z</time>
      </trkpt>
      <trkpt lat="45.39562" lon="2.48585">
        <ele>665</ele>
        <time>2014-08-28T15:23:41Z</time>
      </trkpt>
      <trkpt lat="45.3955" lon="2.48575">
        <ele>660</ele>
        <time>2014-08-28T15:23:53Z</time>
      </trkpt>
      <trkpt lat="45.39533" lon="2.48552">
        <ele>658</ele>
        <time>2014-08-28T15:24:11Z</time>
      </trkpt>
      <trkpt lat="45.3952" lon="2.48545">
        <ele>665</ele>
        <time>2014-08-28T15:24:23Z</time>
      </trkpt>
      <trkpt lat="45.39505" lon="2.48542">
        <ele>663</ele>
        <time>2014-08-28T15:24:35Z</time>
      </trkpt>
      <trkpt lat="45.39487" lon="2.48537">
        <ele>663</ele>
        <time>2014-08-28T15:24:53Z</time>
      </trkpt>
      <trkpt lat="45.39467" lon="2.48537">
        <ele>664</ele>
        <time>2014-08-28T15:25:11Z</time>
      </trkpt>
      <trkpt lat="45.39447" lon="2.48533">
        <ele>660</ele>
        <time>2014-08-28T15:25:29Z</time>
      </trkpt>
      <trkpt lat="45.39432" lon="2.48527">
        <ele>652</ele>
        <time>2014-08-28T15:25:41Z</time>
      </trkpt>
      <trkpt lat="45.3942" lon="2.48513">
        <ele>644</ele>
        <time>2014-08-28T15:25:53Z</time>
      </trkpt>
      <trkpt lat="45.39408" lon="2.48502">
        <ele>648</ele>
        <time>2014-08-28T15:26:04Z</time>
      </trkpt>
      <trkpt lat="45.39397" lon="2.48487">
        <ele>651</ele>
        <time>2014-08-28T15:26:14Z</time>
      </trkpt>
      <trkpt lat="45.39383" lon="2.48475">
        <ele>647</ele>
        <time>2014-08-28T15:26:32Z</time>
      </trkpt>
      <trkpt lat="45.39368" lon="2.48467">
        <ele>646</ele>
        <time>2014-08-28T15:26:42Z</time>
      </trkpt>
      <trkpt lat="45.3936" lon="2.48438">
        <ele>636</ele>
        <time>2014-08-28T15:27:00Z</time>
      </trkpt>
      <trkpt lat="45.39348" lon="2.48428">
        <ele>640</ele>
        <time>2014-08-28T15:28:11Z</time>
      </trkpt>
      <trkpt lat="45.39338" lon="2.48407">
        <ele>627</ele>
        <time>2014-08-28T15:28:29Z</time>
      </trkpt>
      <trkpt lat="45.39325" lon="2.484">
        <ele>631</ele>
        <time>2014-08-28T15:28:39Z</time>
      </trkpt>
      <trkpt lat="45.39303" lon="2.48388">
        <ele>629</ele>
        <time>2014-08-28T15:28:57Z</time>
      </trkpt>
      <trkpt lat="45.39292" lon="2.48373">
        <ele>627</ele>
        <time>2014-08-28T15:29:15Z</time>
      </trkpt>
      <trkpt lat="45.39278" lon="2.48362">
        <ele>615</ele>
        <time>2014-08-28T15:29:25Z</time>
      </trkpt>
      <trkpt lat="45.3926" lon="2.4835">
        <ele>628</ele>
        <time>2014-08-28T15:29:43Z</time>
      </trkpt>
      <trkpt lat="45.3924" lon="2.48347">
        <ele>632</ele>
        <time>2014-08-28T15:30:01Z</time>
      </trkpt>
      <trkpt lat="45.39223" lon="2.48342">
        <ele>626</ele>
        <time>2014-08-28T15:30:20Z</time>
      </trkpt>
      <trkpt lat="45.39205" lon="2.48338">
        <ele>619</ele>
        <time>2014-08-28T15:30:38Z</time>
      </trkpt>
      <trkpt lat="45.39187" lon="2.48337">
        <ele>623</ele>
        <time>2014-08-28T15:30:48Z</time>
      </trkpt>
      <trkpt lat="45.39167" lon="2.48338">
        <ele>621</ele>
        <time>2014-08-28T15:31:06Z</time>
      </trkpt>
      <trkpt lat="45.3915" lon="2.48345">
        <ele>625</ele>
        <time>2014-08-28T15:31:24Z</time>
      </trkpt>
      <trkpt lat="45.39132" lon="2.48353">
        <ele>628</ele>
        <time>2014-08-28T15:31:42Z</time>
      </trkpt>
      <trkpt lat="45.39118" lon="2.48348">
        <ele>621</ele>
        <time>2014-08-28T15:31:52Z</time>
      </trkpt>
      <trkpt lat="45.39103" lon="2.48337">
        <ele>623</ele>
        <time>2014-08-28T15:32:04Z</time>
      </trkpt>
      <trkpt lat="45.39092" lon="2.48327">
        <ele>624</ele>
        <time>2014-08-28T15:32:14Z</time>
      </trkpt>
      <trkpt lat="45.39077" lon="2.48322">
        <ele>629</ele>
        <time>2014-08-28T15:32:26Z</time>
      </trkpt>
      <trkpt lat="45.39065" lon="2.48312">
        <ele>633</ele>
        <time>2014-08-28T15:32:38Z</time>
      </trkpt>
      <trkpt lat="45.39048" lon="2.48307">
        <ele>640</ele>
        <time>2014-08-28T15:32:55Z</time>
      </trkpt>
      <trkpt lat="45.39032" lon="2.48308">
        <ele>638</ele>
        <time>2014-08-28T15:33:13Z</time>
      </trkpt>
      <trkpt lat="45.39017" lon="2.48302">
        <ele>629</ele>
        <time>2014-08-28T15:33:23Z</time>
      </trkpt>
      <trkpt lat="45.38998" lon="2.48302">
        <ele>623</ele>
        <time>2014-08-28T15:33:41Z</time>
      </trkpt>
      <trkpt lat="45.38983" lon="2.48298">
        <ele>629</ele>
        <time>2014-08-28T15:33:53Z</time>
      </trkpt>
      <trkpt lat="45.38968" lon="2.48287">
        <ele>637</ele>
        <time>2014-08-28T15:34:05Z</time>
      </trkpt>
      <trkpt lat="45.38955" lon="2.48263">
        <ele>651</ele>
        <time>2014-08-28T15:34:23Z</time>
      </trkpt>
      <trkpt lat="45.3895" lon="2.48238">
        <ele>653</ele>
        <time>2014-08-28T15:34:41Z</time>
      </trkpt>
      <trkpt lat="45.3894" lon="2.48213">
        <ele>664</ele>
        <time>2014-08-28T15:34:59Z</time>
      </trkpt>
      <trkpt lat="45.3893" lon="2.48198">
        <ele>661</ele>
        <time>2014-08-28T15:35:11Z</time>
      </trkpt>
      <trkpt lat="45.38923" lon="2.4818">
        <ele>654</ele>
        <time>2014-08-28T15:35:28Z</time>
      </trkpt>
      <trkpt lat="45.38912" lon="2.4816">
        <ele>672</ele>
        <time>2014-08-28T15:35:46Z</time>
      </trkpt>
      <trkpt lat="45.38907" lon="2.48142">
        <ele>685</ele>
        <time>2014-08-28T15:36:04Z</time>
      </trkpt>
      <trkpt lat="45.38898" lon="2.48115">
        <ele>681</ele>
        <time>2014-08-28T15:36:22Z</time>
      </trkpt>
      <trkpt lat="45.3889" lon="2.48088">
        <ele>671</ele>
        <time>2014-08-28T15:36:40Z</time>
      </trkpt>
      <trkpt lat="45.38887" lon="2.48068">
        <ele>645</ele>
        <time>2014-08-28T15:37:30Z</time>
      </trkpt>
      <trkpt lat="45.38878" lon="2.48052">
        <ele>659</ele>
        <time>2014-08-28T15:37:47Z</time>
      </trkpt>
      <trkpt lat="45.38867" lon="2.48032">
        <ele>662</ele>
        <time>2014-08-28T15:38:05Z</time>
      </trkpt>
      <trkpt lat="45.38852" lon="2.48013">
        <ele>660</ele>
        <time>2014-08-28T15:38:23Z</time>
      </trkpt>
      <trkpt lat="45.38828" lon="2.47985">
        <ele>667</ele>
        <time>2014-08-28T15:38:49Z</time>
      </trkpt>
      <trkpt lat="45.38817" lon="2.47958">
        <ele>667</ele>
        <time>2014-08-28T15:39:07Z</time>
      </trkpt>
      <trkpt lat="45.38812" lon="2.47938">
        <ele>668</ele>
        <time>2014-08-28T15:39:19Z</time>
      </trkpt>
      <trkpt lat="45.38805" lon="2.4792">
        <ele>669</ele>
        <time>2014-08-28T15:39:31Z</time>
      </trkpt>
      <trkpt lat="45.38798" lon="2.479">
        <ele>670</ele>
        <time>2014-08-28T15:39:43Z</time>
      </trkpt>
      <trkpt lat="45.38788" lon="2.47885">
        <ele>672</ele>
        <time>2014-08-28T15:39:55Z</time>
      </trkpt>
      <trkpt lat="45.38787" lon="2.47865">
        <ele>675</ele>
        <time>2014-08-28T15:41:02Z</time>
      </trkpt>
      <trkpt lat="45.38782" lon="2.47843">
        <ele>684</ele>
        <time>2014-08-28T15:41:22Z</time>
      </trkpt>
      <trkpt lat="45.38777" lon="2.47825">
        <ele>689</ele>
        <time>2014-08-28T15:41:40Z</time>
      </trkpt>
      <trkpt lat="45.38773" lon="2.47805">
        <ele>685</ele>
        <time>2014-08-28T15:42:14Z</time>
      </trkpt>
      <trkpt lat="45.38773" lon="2.47782">
        <ele>692</ele>
        <time>2014-08-28T15:42:32Z</time>
      </trkpt>
      <trkpt lat="45.38778" lon="2.4776">
        <ele>694</ele>
        <time>2014-08-28T15:42:49Z</time>
      </trkpt>
      <trkpt lat="45.38787" lon="2.47742">
        <ele>688</ele>
        <time>2014-08-28T15:43:11Z</time>
      </trkpt>
      <trkpt lat="45.38798" lon="2.47723">
        <ele>689</ele>
        <time>2014-08-28T15:43:29Z</time>
      </trkpt>
      <trkpt lat="45.38805" lon="2.47705">
        <ele>689</ele>
        <time>2014-08-28T15:43:41Z</time>
      </trkpt>
      <trkpt lat="45.38815" lon="2.47692">
        <ele>688</ele>
        <time>2014-08-28T15:44:11Z</time>
      </trkpt>
      <trkpt lat="45.38832" lon="2.47682">
        <ele>690</ele>
        <time>2014-08-28T15:44:29Z</time>
      </trkpt>
      <trkpt lat="45.38845" lon="2.47678">
        <ele>693</ele>
        <time>2014-08-28T15:44:47Z</time>
      </trkpt>
      <trkpt lat="45.38858" lon="2.47675">
        <ele>700</ele>
        <time>2014-08-28T15:45:32Z</time>
      </trkpt>
      <trkpt lat="45.38873" lon="2.47668">
        <ele>698</ele>
        <time>2014-08-28T15:45:52Z</time>
      </trkpt>
      <trkpt lat="45.38888" lon="2.47653">
        <ele>703</ele>
        <time>2014-08-28T15:46:10Z</time>
      </trkpt>
      <trkpt lat="45.389" lon="2.47642">
        <ele>703</ele>
        <time>2014-08-28T15:46:22Z</time>
      </trkpt>
      <trkpt lat="45.38915" lon="2.47635">
        <ele>703</ele>
        <time>2014-08-28T15:46:34Z</time>
      </trkpt>
      <trkpt lat="45.3893" lon="2.47638">
        <ele>702</ele>
        <time>2014-08-28T15:46:44Z</time>
      </trkpt>
      <trkpt lat="45.38945" lon="2.47637">
        <ele>704</ele>
        <time>2014-08-28T15:46:56Z</time>
      </trkpt>
      <trkpt lat="45.38958" lon="2.47628">
        <ele>704</ele>
        <time>2014-08-28T15:47:08Z</time>
      </trkpt>
      <trkpt lat="45.38973" lon="2.4763">
        <ele>703</ele>
        <time>2014-08-28T15:47:26Z</time>
      </trkpt>
      <trkpt lat="45.38992" lon="2.47635">
        <ele>705</ele>
        <time>2014-08-28T15:47:44Z</time>
      </trkpt>
      <trkpt lat="45.39007" lon="2.47638">
        <ele>706</ele>
        <time>2014-08-28T15:47:57Z</time>
      </trkpt>
      <trkpt lat="45.39027" lon="2.47645">
        <ele>703</ele>
        <time>2014-08-28T15:48:17Z</time>
      </trkpt>
      <trkpt lat="45.3904" lon="2.4763">
        <ele>704</ele>
        <time>2014-08-28T15:48:35Z</time>
      </trkpt>
      <trkpt lat="45.39053" lon="2.4762">
        <ele>701</ele>
        <time>2014-08-28T15:48:47Z</time>
      </trkpt>
      <trkpt lat="45.39068" lon="2.47612">
        <ele>700</ele>
        <time>2014-08-28T15:48:59Z</time>
      </trkpt>
      <trkpt lat="45.39088" lon="2.47595">
        <ele>701</ele>
        <time>2014-08-28T15:49:19Z</time>
      </trkpt>
      <trkpt lat="45.39118" lon="2.4757">
        <ele>704</ele>
        <time>2014-08-28T15:49:47Z</time>
      </trkpt>
      <trkpt lat="45.3914" lon="2.47552">
        <ele>709</ele>
        <time>2014-08-28T15:50:09Z</time>
      </trkpt>
      <trkpt lat="45.39158" lon="2.4754">
        <ele>709</ele>
        <time>2014-08-28T15:50:27Z</time>
      </trkpt>
      <trkpt lat="45.39173" lon="2.47538">
        <ele>707</ele>
        <time>2014-08-28T15:50:40Z</time>
      </trkpt>
      <trkpt lat="45.39195" lon="2.47538">
        <ele>709</ele>
        <time>2014-08-28T15:51:00Z</time>
      </trkpt>
      <trkpt lat="45.39217" lon="2.47538">
        <ele>710</ele>
        <time>2014-08-28T15:51:18Z</time>
      </trkpt>
      <trkpt lat="45.39242" lon="2.47542">
        <ele>711</ele>
        <time>2014-08-28T15:51:38Z</time>
      </trkpt>
      <trkpt lat="45.39257" lon="2.47545">
        <ele>710</ele>
        <time>2014-08-28T15:51:50Z</time>
      </trkpt>
      <trkpt lat="45.39272" lon="2.47548">
        <ele>710</ele>
        <time>2014-08-28T15:52:02Z</time>
      </trkpt>
      <trkpt lat="45.39285" lon="2.47552">
        <ele>711</ele>
        <time>2014-08-28T15:52:20Z</time>
      </trkpt>
      <trkpt lat="45.39313" lon="2.47557">
        <ele>712</ele>
        <time>2014-08-28T15:52:44Z</time>
      </trkpt>
      <trkpt lat="45.39337" lon="2.47562">
        <ele>713</ele>
        <time>2014-08-28T15:53:03Z</time>
      </trkpt>
      <trkpt lat="45.3935" lon="2.47558">
        <ele>718</ele>
        <time>2014-08-28T15:53:23Z</time>
      </trkpt>
    </trkseg>
  </trk>
</gpx>